createdAt,value
2019-02-27T00:00:45.940Z,6.17
2019-02-27T00:01:49.695Z,6.20
2019-02-27T00:02:45.922Z,6.11
2019-02-27T00:03:45.912Z,6.14
2019-02-27T00:04:45.905Z,6.19
2019-02-27T00:05:45.893Z,6.17
2019-02-27T00:06:47.848Z,6.16
2019-02-27T00:07:45.903Z,6.14
2019-02-27T00:08:45.871Z,6.22
2019-02-27T00:09:45.857Z,6.11
2019-02-27T00:10:45.845Z,6.07
2019-02-27T00:11:46.700Z,6.04
2019-02-27T00:12:45.828Z,6.04
2019-02-27T00:13:45.817Z,6.08
2019-02-27T00:14:45.808Z,6.05
2019-02-27T00:15:45.799Z,5.98
2019-02-27T00:16:45.789Z,5.98
2019-02-27T00:17:45.782Z,5.99
2019-02-27T00:18:45.773Z,5.98
2019-02-27T00:19:45.761Z,5.94
2019-02-27T00:20:45.783Z,5.94
2019-02-27T00:21:45.741Z,5.89
2019-02-27T00:22:47.920Z,5.87
2019-02-27T00:23:45.721Z,5.83
2019-02-27T00:24:45.712Z,5.87
2019-02-27T00:25:45.706Z,5.71
2019-02-27T00:26:45.732Z,5.80
2019-02-27T00:27:48.692Z,5.75
2019-02-27T00:28:45.675Z,5.69
2019-02-27T00:29:45.663Z,5.64
2019-02-27T00:30:45.653Z,5.61
2019-02-27T00:31:46.201Z,5.57
2019-02-27T00:32:45.635Z,5.56
2019-02-27T00:33:45.654Z,5.48
2019-02-27T00:34:45.650Z,5.47
2019-02-27T00:35:45.608Z,5.64
2019-02-27T00:36:45.708Z,5.57
2019-02-27T00:37:45.589Z,5.57
2019-02-27T00:38:45.576Z,5.59
2019-02-27T00:39:45.564Z,5.50
2019-02-27T00:40:45.556Z,5.54
2019-02-27T00:41:46.059Z,5.56
2019-02-27T00:42:45.546Z,5.51
2019-02-27T00:43:45.526Z,5.59
2019-02-27T00:44:45.517Z,5.56
2019-02-27T00:45:45.507Z,5.61
2019-02-27T00:46:46.465Z,5.64
2019-02-27T00:47:45.484Z,5.62
2019-02-27T00:48:45.477Z,5.50
2019-02-27T00:49:45.470Z,5.59
2019-02-27T00:50:45.462Z,5.50
2019-02-27T00:51:45.522Z,5.59
2019-02-27T00:52:45.442Z,5.51
2019-02-27T00:53:45.489Z,5.51
2019-02-27T00:54:45.418Z,5.47
2019-02-27T00:55:45.424Z,5.51
2019-02-27T00:56:45.725Z,5.47
2019-02-27T00:57:45.390Z,5.57
2019-02-27T00:58:45.377Z,5.50
2019-02-27T00:59:45.369Z,5.50
2019-02-27T01:00:45.358Z,5.48
2019-02-27T01:01:47.498Z,5.59
2019-02-27T01:02:45.340Z,5.61
2019-02-27T01:03:45.332Z,5.61
2019-02-27T01:04:45.317Z,5.59
2019-02-27T01:05:45.323Z,5.47
2019-02-27T01:06:47.454Z,5.61
2019-02-27T01:07:45.290Z,5.46
2019-02-27T01:08:45.280Z,5.44
2019-02-27T01:09:45.271Z,5.43
2019-02-27T01:10:45.870Z,5.53
2019-02-27T01:11:45.256Z,5.50
2019-02-27T01:12:45.303Z,5.38
2019-02-27T01:13:45.230Z,5.35
2019-02-27T01:14:45.219Z,5.41
2019-02-27T01:15:45.209Z,5.43
2019-02-27T01:16:47.694Z,5.35
2019-02-27T01:17:45.202Z,5.39
2019-02-27T01:18:45.177Z,5.30
2019-02-27T01:19:45.169Z,5.26
2019-02-27T01:20:46.441Z,5.30
2019-02-27T01:21:45.150Z,5.28
2019-02-27T01:22:45.139Z,5.26
2019-02-27T01:23:45.136Z,5.26
2019-02-27T01:24:45.116Z,5.28
2019-02-27T01:25:45.109Z,5.29
2019-02-27T01:26:45.099Z,5.26
2019-02-27T01:27:45.092Z,5.28
2019-02-27T01:28:45.623Z,5.29
2019-02-27T01:29:45.067Z,5.26
2019-02-27T01:30:45.057Z,5.23
2019-02-27T01:31:45.052Z,5.12
2019-02-27T01:32:45.039Z,5.14
2019-02-27T01:33:45.034Z,5.08
2019-02-27T01:34:45.093Z,5.12
2019-02-27T01:35:45.009Z,5.12
2019-02-27T01:36:45.013Z,5.15
2019-02-27T01:37:44.993Z,5.17
2019-02-27T01:38:44.977Z,5.14
2019-02-27T01:39:44.972Z,5.17
2019-02-27T01:40:44.956Z,5.10
2019-02-27T01:41:44.947Z,5.14
2019-02-27T01:42:44.964Z,5.05
2019-02-27T01:43:44.925Z,5.07
2019-02-27T01:44:46.566Z,5.05
2019-02-27T01:45:44.910Z,5.05
2019-02-27T01:46:44.898Z,5.07
2019-02-27T01:47:44.887Z,5.08
2019-02-27T01:48:44.877Z,5.04
2019-02-27T01:49:48.922Z,5.10
2019-02-27T01:50:44.857Z,5.05
2019-02-27T01:51:44.847Z,4.97
2019-02-27T01:52:44.839Z,5.00
2019-02-27T01:53:44.827Z,4.99
2019-02-27T01:54:46.097Z,5.02
2019-02-27T01:55:44.806Z,4.96
2019-02-27T01:56:44.794Z,4.94
2019-02-27T01:57:44.788Z,4.94
2019-02-27T01:58:44.783Z,4.93
2019-02-27T01:59:44.763Z,4.94
2019-02-27T02:00:44.761Z,4.96
2019-02-27T02:01:44.742Z,4.96
2019-02-27T02:02:44.736Z,4.96
2019-02-27T02:03:47.163Z,4.89
2019-02-27T02:04:44.711Z,4.96
2019-02-27T02:05:44.701Z,4.97
2019-02-27T02:06:44.691Z,4.96
2019-02-27T02:07:44.681Z,4.97
2019-02-27T02:08:47.983Z,4.93
2019-02-27T02:09:44.659Z,4.97
2019-02-27T02:10:44.655Z,5.04
2019-02-27T02:11:44.637Z,4.94
2019-02-27T02:12:44.627Z,4.97
2019-02-27T02:13:48.022Z,4.93
2019-02-27T02:14:44.611Z,4.92
2019-02-27T02:15:44.596Z,4.93
2019-02-27T02:16:44.586Z,4.93
2019-02-27T02:17:44.582Z,4.97
2019-02-27T02:18:45.732Z,4.89
2019-02-27T02:19:44.558Z,4.97
2019-02-27T02:20:44.545Z,4.94
2019-02-27T02:21:44.536Z,4.92
2019-02-27T02:22:44.525Z,4.92
2019-02-27T02:23:44.947Z,4.93
2019-02-27T02:24:44.507Z,4.94
2019-02-27T02:25:44.494Z,4.92
2019-02-27T02:26:44.483Z,4.87
2019-02-27T02:27:44.473Z,4.84
2019-02-27T02:28:48.072Z,4.90
2019-02-27T02:29:44.452Z,4.89
2019-02-27T02:30:44.453Z,4.80
2019-02-27T02:31:44.438Z,4.75
2019-02-27T02:32:44.423Z,4.84
2019-02-27T02:33:44.416Z,4.75
2019-02-27T02:34:44.402Z,4.77
2019-02-27T02:35:49.748Z,4.78
2019-02-27T02:36:44.381Z,4.70
2019-02-27T02:37:44.375Z,4.70
2019-02-27T02:38:44.357Z,4.60
2019-02-27T02:39:44.349Z,4.62
2019-02-27T02:40:44.339Z,4.62
2019-02-27T02:41:47.971Z,4.67
2019-02-27T02:42:44.320Z,4.60
2019-02-27T02:43:44.326Z,4.66
2019-02-27T02:44:44.364Z,4.71
2019-02-27T02:45:44.285Z,4.70
2019-02-27T02:46:45.282Z,4.73
2019-02-27T02:47:44.267Z,4.71
2019-02-27T02:48:44.253Z,4.68
2019-02-27T02:49:44.262Z,4.70
2019-02-27T02:50:44.234Z,4.77
2019-02-27T02:51:44.227Z,4.77
2019-02-27T02:52:44.212Z,4.75
2019-02-27T02:53:44.203Z,4.66
2019-02-27T02:54:44.190Z,4.80
2019-02-27T02:55:47.729Z,4.78
2019-02-27T02:56:44.172Z,4.77
2019-02-27T02:57:44.162Z,4.78
2019-02-27T02:58:48.435Z,4.89
2019-02-27T02:59:44.136Z,4.89
2019-02-27T03:00:44.127Z,4.89
2019-02-27T03:01:45.589Z,4.87
2019-02-27T03:02:44.109Z,4.90
2019-02-27T03:03:44.112Z,4.82
2019-02-27T03:04:47.933Z,4.93
2019-02-27T03:05:44.086Z,4.93
2019-02-27T03:06:44.067Z,4.87
2019-02-27T03:07:44.871Z,4.75
2019-02-27T03:08:44.045Z,4.71
2019-02-27T03:09:44.032Z,4.80
2019-02-27T03:10:44.022Z,4.78
2019-02-27T03:11:44.017Z,4.80
2019-02-27T03:12:44.005Z,4.71
2019-02-27T03:13:43.998Z,4.78
2019-02-27T03:14:43.985Z,4.80
2019-02-27T03:15:43.976Z,4.74
2019-02-27T03:16:43.964Z,4.77
2019-02-27T03:17:43.951Z,4.78
2019-02-27T03:18:43.937Z,4.70
2019-02-27T03:19:43.953Z,4.63
2019-02-27T03:20:43.917Z,4.63
2019-02-27T03:21:43.909Z,4.55
2019-02-27T03:22:43.898Z,4.49
2019-02-27T03:23:43.890Z,4.49
2019-02-27T03:24:43.886Z,4.59
2019-02-27T03:25:43.871Z,4.55
2019-02-27T03:26:43.854Z,4.53
2019-02-27T03:27:43.842Z,4.50
2019-02-27T03:28:43.829Z,4.53
2019-02-27T03:29:43.819Z,4.50
2019-02-27T03:30:43.814Z,4.58
2019-02-27T03:31:43.803Z,4.58
2019-02-27T03:32:43.955Z,4.58
2019-02-27T03:33:43.781Z,4.58
2019-02-27T03:34:50.435Z,4.53
2019-02-27T03:35:43.764Z,4.53
2019-02-27T03:36:43.748Z,4.53
2019-02-27T03:37:47.975Z,4.55
2019-02-27T03:38:43.725Z,4.45
2019-02-27T03:39:43.714Z,4.52
2019-02-27T03:40:45.146Z,4.49
2019-02-27T03:41:43.694Z,4.52
2019-02-27T03:42:43.684Z,4.50
2019-02-27T03:43:45.978Z,4.53
2019-02-27T03:44:43.662Z,4.45
2019-02-27T03:45:43.655Z,4.49
2019-02-27T03:46:43.647Z,4.53
2019-02-27T03:47:43.634Z,4.52
2019-02-27T03:48:43.620Z,4.42
2019-02-27T03:49:43.609Z,4.55
2019-02-27T03:50:49.556Z,4.45
2019-02-27T03:51:43.598Z,4.53
2019-02-27T03:52:43.577Z,4.49
2019-02-27T03:53:46.437Z,4.42
2019-02-27T03:54:43.566Z,4.44
2019-02-27T03:55:43.554Z,4.41
2019-02-27T03:56:44.673Z,4.42
2019-02-27T03:57:43.527Z,4.52
2019-02-27T03:58:43.516Z,4.49
2019-02-27T03:59:43.851Z,4.44
2019-02-27T04:00:43.507Z,4.42
2019-02-27T04:01:43.499Z,4.41
2019-02-27T04:02:43.474Z,4.48
2019-02-27T04:03:43.462Z,4.38
2019-02-27T04:04:43.470Z,4.49
2019-02-27T04:05:46.033Z,4.49
2019-02-27T04:06:43.430Z,4.49
2019-02-27T04:07:43.427Z,4.40
2019-02-27T04:08:44.827Z,4.50
2019-02-27T04:09:43.399Z,4.41
2019-02-27T04:10:43.389Z,4.38
2019-02-27T04:11:43.389Z,4.37
2019-02-27T04:12:43.366Z,4.45
2019-02-27T04:13:43.364Z,4.37
2019-02-27T04:14:43.343Z,4.38
2019-02-27T04:15:43.335Z,4.40
2019-02-27T04:16:43.327Z,4.37
2019-02-27T04:17:43.312Z,4.42
2019-02-27T04:18:43.304Z,4.35
2019-02-27T04:19:43.301Z,4.40
2019-02-27T04:20:43.280Z,4.45
2019-02-27T04:21:43.272Z,4.38
2019-02-27T04:22:43.266Z,4.37
2019-02-27T04:23:47.949Z,4.41
2019-02-27T04:24:43.239Z,4.45
2019-02-27T04:25:43.236Z,4.38
2019-02-27T04:26:43.223Z,4.37
2019-02-27T04:27:43.206Z,4.38
2019-02-27T04:28:43.195Z,4.22
2019-02-27T04:29:43.195Z,4.28
2019-02-27T04:30:43.175Z,4.32
2019-02-27T04:31:43.168Z,4.30
2019-02-27T04:32:47.650Z,4.24
2019-02-27T04:33:43.148Z,4.40
2019-02-27T04:34:43.134Z,4.32
2019-02-27T04:35:43.126Z,4.37
2019-02-27T04:36:47.014Z,4.31
2019-02-27T04:37:43.102Z,4.35
2019-02-27T04:38:43.090Z,4.34
2019-02-27T04:39:43.077Z,4.41
2019-02-27T04:40:44.168Z,4.26
2019-02-27T04:41:43.057Z,4.44
2019-02-27T04:42:43.045Z,4.42
2019-02-27T04:43:43.035Z,4.38
2019-02-27T04:44:43.024Z,4.34
2019-02-27T04:45:46.435Z,4.37
2019-02-27T04:46:43.003Z,4.38
2019-02-27T04:47:42.993Z,4.48
2019-02-27T04:48:42.982Z,4.45
2019-02-27T04:49:42.971Z,4.49
2019-02-27T04:50:44.176Z,4.53
2019-02-27T04:51:42.949Z,4.49
2019-02-27T04:52:42.939Z,4.55
2019-02-27T04:53:42.931Z,4.56
2019-02-27T04:54:42.920Z,4.48
2019-02-27T04:55:42.906Z,4.55
2019-02-27T04:56:42.898Z,4.55
2019-02-27T04:57:42.884Z,4.62
2019-02-27T04:58:43.688Z,4.58
2019-02-27T04:59:42.865Z,4.59
2019-02-27T05:00:42.858Z,4.58
2019-02-27T05:01:42.845Z,4.55
2019-02-27T05:02:42.834Z,4.63
2019-02-27T05:03:42.825Z,4.62
2019-02-27T05:04:42.810Z,4.56
2019-02-27T05:05:42.802Z,4.56
2019-02-27T05:06:46.849Z,4.48
2019-02-27T05:07:42.779Z,4.60
2019-02-27T05:08:42.773Z,4.58
2019-02-27T05:09:42.760Z,4.52
2019-02-27T05:10:42.746Z,4.48
2019-02-27T05:11:47.573Z,4.50
2019-02-27T05:12:42.729Z,4.40
2019-02-27T05:13:42.717Z,4.26
2019-02-27T05:14:42.711Z,4.34
2019-02-27T05:15:42.692Z,4.34
2019-02-27T05:16:46.953Z,4.24
2019-02-27T05:17:42.672Z,4.26
2019-02-27T05:18:42.665Z,4.24
2019-02-27T05:19:42.649Z,4.26
2019-02-27T05:20:45.069Z,4.31
2019-02-27T05:21:42.636Z,4.22
2019-02-27T05:22:42.628Z,4.30
2019-02-27T05:23:42.620Z,4.26
2019-02-27T05:24:42.596Z,4.13
2019-02-27T05:25:42.593Z,4.22
2019-02-27T05:26:42.575Z,4.17
2019-02-27T05:27:42.571Z,4.12
2019-02-27T05:28:42.554Z,4.13
2019-02-27T05:29:42.559Z,4.16
2019-02-27T05:30:44.771Z,4.28
2019-02-27T05:31:42.521Z,4.22
2019-02-27T05:32:42.512Z,4.17
2019-02-27T05:33:42.506Z,4.17
2019-02-27T05:34:42.491Z,4.19
2019-02-27T05:35:42.478Z,4.20
2019-02-27T05:36:42.469Z,4.19
2019-02-27T05:37:42.460Z,4.10
2019-02-27T05:38:43.680Z,4.13
2019-02-27T05:39:42.439Z,4.13
2019-02-27T05:40:42.428Z,4.10
2019-02-27T05:41:42.414Z,4.10
2019-02-27T05:42:42.404Z,4.13
2019-02-27T05:43:47.558Z,4.13
2019-02-27T05:44:42.381Z,4.10
2019-02-27T05:45:42.371Z,4.10
2019-02-27T05:46:42.360Z,4.10
2019-02-27T05:47:45.841Z,4.14
2019-02-27T05:48:42.348Z,4.14
2019-02-27T05:49:42.332Z,4.13
2019-02-27T05:50:44.347Z,4.13
2019-02-27T05:51:42.308Z,4.19
2019-02-27T05:52:42.296Z,4.16
2019-02-27T05:53:42.289Z,4.04
2019-02-27T05:54:42.276Z,4.04
2019-02-27T05:55:42.267Z,4.04
2019-02-27T05:56:42.254Z,3.99
2019-02-27T05:57:42.243Z,3.94
2019-02-27T05:58:42.229Z,3.98
2019-02-27T05:59:42.221Z,4.04
2019-02-27T06:00:42.214Z,4.04
2019-02-27T06:01:42.196Z,3.98
2019-02-27T06:02:45.068Z,3.96
2019-02-27T06:03:42.177Z,4.02
2019-02-27T06:04:42.176Z,4.02
2019-02-27T06:05:49.365Z,3.96
2019-02-27T06:06:45.037Z,4.04
2019-02-27T06:07:42.131Z,4.04
2019-02-27T06:08:42.121Z,4.06
2019-02-27T06:09:43.745Z,4.08
2019-02-27T06:10:42.097Z,4.01
2019-02-27T06:11:42.090Z,4.12
2019-02-27T06:12:42.088Z,4.17
2019-02-27T06:13:42.068Z,4.20
2019-02-27T06:14:42.055Z,4.17
2019-02-27T06:15:42.045Z,4.19
2019-02-27T06:16:42.032Z,4.24
2019-02-27T06:17:43.616Z,4.12
2019-02-27T06:18:42.028Z,4.23
2019-02-27T06:19:42.000Z,4.23
2019-02-27T06:20:42.541Z,4.34
2019-02-27T06:21:41.983Z,4.34
2019-02-27T06:22:41.967Z,4.20
2019-02-27T06:23:41.955Z,4.32
2019-02-27T06:24:45.252Z,4.35
2019-02-27T06:25:41.942Z,4.41
2019-02-27T06:26:41.943Z,4.49
2019-02-27T06:27:41.914Z,4.45
2019-02-27T06:28:41.967Z,4.37
2019-02-27T06:29:41.891Z,4.34
2019-02-27T06:30:41.880Z,4.30
2019-02-27T06:31:41.869Z,4.38
2019-02-27T06:32:41.859Z,4.26
2019-02-27T06:33:45.070Z,4.34
2019-02-27T06:34:41.837Z,4.31
2019-02-27T06:35:41.824Z,4.30
2019-02-27T06:36:42.858Z,4.31
2019-02-27T06:37:41.805Z,4.28
2019-02-27T06:38:41.794Z,4.37
2019-02-27T06:39:41.779Z,4.30
2019-02-27T06:40:42.321Z,4.28
2019-02-27T06:41:41.758Z,4.31
2019-02-27T06:42:41.749Z,4.31
2019-02-27T06:43:41.735Z,4.22
2019-02-27T06:44:41.726Z,4.19
2019-02-27T06:45:45.492Z,4.14
2019-02-27T06:46:41.738Z,4.17
2019-02-27T06:47:41.692Z,4.17
2019-02-27T06:48:43.603Z,4.14
2019-02-27T06:49:41.672Z,4.19
2019-02-27T06:50:41.663Z,4.14
2019-02-27T06:51:41.650Z,4.20
2019-02-27T06:52:42.452Z,4.19
2019-02-27T06:53:41.626Z,4.16
2019-02-27T06:54:41.619Z,4.14
2019-02-27T06:55:41.607Z,4.30
2019-02-27T06:56:41.595Z,4.22
2019-02-27T06:57:41.934Z,4.31
2019-02-27T06:58:41.578Z,4.32
2019-02-27T06:59:41.567Z,4.35
2019-02-27T07:00:41.556Z,4.31
2019-02-27T07:01:41.542Z,4.38
2019-02-27T07:02:41.532Z,4.34
2019-02-27T07:03:41.517Z,4.40
2019-02-27T07:04:41.518Z,4.32
2019-02-27T07:05:41.494Z,4.48
2019-02-27T07:06:41.485Z,4.55
2019-02-27T07:07:41.476Z,4.48
2019-02-27T07:08:41.465Z,4.49
2019-02-27T07:09:43.217Z,4.55
2019-02-27T07:10:41.441Z,4.48
2019-02-27T07:11:44.936Z,4.56
2019-02-27T07:12:41.507Z,4.62
2019-02-27T07:13:41.408Z,4.68
2019-02-27T07:14:41.397Z,4.73
2019-02-27T07:15:41.394Z,4.75
2019-02-27T07:16:41.379Z,4.74
2019-02-27T07:17:41.365Z,4.84
2019-02-27T07:18:42.376Z,4.84
2019-02-27T07:19:41.342Z,4.80
2019-02-27T07:20:41.334Z,4.78
2019-02-27T07:21:41.324Z,4.84
2019-02-27T07:22:45.675Z,4.75
2019-02-27T07:23:41.307Z,4.82
2019-02-27T07:24:41.288Z,4.74
2019-02-27T07:25:42.176Z,4.74
2019-02-27T07:26:41.269Z,4.75
2019-02-27T07:27:41.264Z,4.74
2019-02-27T07:28:43.438Z,4.77
2019-02-27T07:29:42.804Z,4.75
2019-02-27T07:30:42.652Z,4.78
2019-02-27T07:31:41.225Z,4.78
2019-02-27T07:32:41.221Z,4.82
2019-02-27T07:33:41.223Z,4.75
2019-02-27T07:34:41.339Z,4.78
2019-02-27T07:35:41.175Z,4.70
2019-02-27T07:36:41.161Z,4.70
2019-02-27T07:37:41.150Z,4.73
2019-02-27T07:38:41.146Z,4.75
2019-02-27T07:39:41.128Z,4.78
2019-02-27T07:40:42.935Z,4.80
2019-02-27T07:41:41.122Z,4.71
2019-02-27T07:42:41.100Z,4.77
2019-02-27T07:43:41.085Z,4.78
2019-02-27T07:44:42.242Z,4.73
2019-02-27T07:45:42.717Z,4.87
2019-02-27T07:46:41.067Z,5.02
2019-02-27T07:47:41.057Z,4.96
2019-02-27T07:48:41.034Z,4.93
2019-02-27T07:49:41.023Z,4.92
2019-02-27T07:50:41.012Z,4.94
2019-02-27T07:51:41.068Z,4.96
2019-02-27T07:52:40.995Z,4.92
2019-02-27T07:53:40.981Z,4.94
2019-02-27T07:54:40.970Z,4.94
2019-02-27T07:55:40.960Z,4.90
2019-02-27T07:56:40.948Z,4.93
2019-02-27T07:57:40.937Z,4.94
2019-02-27T07:58:40.933Z,4.93
2019-02-27T07:59:40.915Z,5.02
2019-02-27T08:00:42.780Z,5.02
2019-02-27T08:01:43.751Z,4.97
2019-02-27T08:02:40.884Z,5.05
2019-02-27T08:03:44.640Z,5.05
2019-02-27T08:04:40.860Z,5.05
2019-02-27T08:05:40.852Z,5.02
2019-02-27T08:06:41.532Z,5.05
2019-02-27T08:07:40.830Z,5.10
2019-02-27T08:08:40.823Z,5.14
2019-02-27T08:09:40.807Z,5.15
2019-02-27T08:10:40.801Z,5.15
2019-02-27T08:11:40.790Z,5.11
2019-02-27T08:12:40.774Z,5.26
2019-02-27T08:13:40.771Z,5.32
2019-02-27T08:14:40.754Z,5.33
2019-02-27T08:15:40.744Z,5.41
2019-02-27T08:16:40.738Z,5.39
2019-02-27T08:17:40.722Z,5.38
2019-02-27T08:18:40.713Z,5.50
2019-02-27T08:19:42.823Z,5.53
2019-02-27T08:20:40.691Z,5.53
2019-02-27T08:21:40.681Z,5.62
2019-02-27T08:22:40.671Z,5.56
2019-02-27T08:23:40.659Z,5.53
2019-02-27T08:24:40.651Z,5.64
2019-02-27T08:25:40.644Z,5.62
2019-02-27T08:26:40.630Z,5.68
2019-02-27T08:27:43.050Z,5.76
2019-02-27T08:28:40.610Z,5.80
2019-02-27T08:29:40.596Z,5.86
2019-02-27T08:30:40.590Z,5.91
2019-02-27T08:31:40.579Z,5.91
2019-02-27T08:32:40.567Z,5.90
2019-02-27T08:33:40.571Z,5.90
2019-02-27T08:34:40.545Z,5.94
2019-02-27T08:35:40.540Z,5.89
2019-02-27T08:36:40.530Z,5.94
2019-02-27T08:37:40.519Z,5.93
2019-02-27T08:38:40.507Z,5.99
2019-02-27T08:39:40.503Z,6.04
2019-02-27T08:40:40.486Z,6.14
2019-02-27T08:41:40.476Z,6.22
2019-02-27T08:42:40.703Z,6.14
2019-02-27T08:43:41.207Z,6.22
2019-02-27T08:44:42.968Z,6.22
2019-02-27T08:45:40.435Z,6.27
2019-02-27T08:46:40.430Z,6.28
2019-02-27T08:47:40.891Z,6.27
2019-02-27T08:48:40.441Z,6.33
2019-02-27T08:49:40.397Z,6.44
2019-02-27T08:50:40.387Z,6.36
2019-02-27T08:51:42.116Z,6.52
2019-02-27T08:52:40.364Z,6.60
2019-02-27T08:53:40.363Z,6.64
2019-02-27T08:54:40.579Z,6.75
2019-02-27T08:55:40.335Z,6.74
2019-02-27T08:56:40.403Z,6.75
2019-02-27T08:57:40.316Z,6.88
2019-02-27T08:58:40.306Z,6.88
2019-02-27T08:59:40.775Z,7.00
2019-02-27T09:00:40.294Z,7.00
2019-02-27T09:01:40.278Z,7.07
2019-02-27T09:02:40.270Z,7.06
2019-02-27T09:03:40.259Z,7.05
2019-02-27T09:04:42.909Z,7.11
2019-02-27T09:05:40.239Z,7.07
2019-02-27T09:06:40.231Z,7.06
2019-02-27T09:07:40.226Z,7.05
2019-02-27T09:08:43.322Z,7.15
2019-02-27T09:09:40.204Z,7.15
2019-02-27T09:10:40.302Z,7.17
2019-02-27T09:11:40.731Z,7.13
2019-02-27T09:12:40.338Z,7.17
2019-02-27T09:13:40.165Z,7.25
2019-02-27T09:14:40.158Z,7.32
2019-02-27T09:15:41.721Z,7.35
2019-02-27T09:16:40.141Z,7.35
2019-02-27T09:17:40.131Z,7.43
2019-02-27T09:18:40.117Z,7.54
2019-02-27T09:19:44.974Z,7.48
2019-02-27T09:20:40.098Z,7.58
2019-02-27T09:21:40.094Z,7.57
2019-02-27T09:22:40.082Z,7.66
2019-02-27T09:23:40.070Z,7.72
2019-02-27T09:24:40.070Z,7.67
2019-02-27T09:25:40.055Z,7.82
2019-02-27T09:26:40.043Z,7.73
2019-02-27T09:27:40.040Z,7.82
2019-02-27T09:28:44.316Z,7.85
2019-02-27T09:29:40.015Z,7.90
2019-02-27T09:30:40.006Z,7.88
2019-02-27T09:31:50.268Z,7.98
2019-02-27T09:32:40.000Z,8.01
2019-02-27T09:33:39.980Z,8.06
2019-02-27T09:34:39.975Z,8.13
2019-02-27T09:35:40.253Z,8.18
2019-02-27T09:36:43.044Z,8.20
2019-02-27T09:37:39.947Z,8.23
2019-02-27T09:38:39.937Z,8.34
2019-02-27T09:39:39.931Z,8.31
2019-02-27T09:40:40.061Z,8.34
2019-02-27T09:41:39.908Z,8.38
2019-02-27T09:42:39.913Z,8.37
2019-02-27T09:43:39.898Z,8.41
2019-02-27T09:44:39.884Z,8.49
2019-02-27T09:45:39.889Z,8.55
2019-02-27T09:46:39.870Z,8.53
2019-02-27T09:47:39.861Z,8.67
2019-02-27T09:48:39.863Z,8.71
2019-02-27T09:49:40.627Z,8.79
2019-02-27T09:50:39.836Z,8.76
2019-02-27T09:51:39.826Z,8.82
2019-02-27T09:52:39.816Z,8.88
2019-02-27T09:53:39.819Z,8.79
2019-02-27T09:54:39.798Z,8.91
2019-02-27T09:55:39.799Z,8.91
2019-02-27T09:56:39.786Z,9.03
2019-02-27T09:57:39.774Z,9.11
2019-02-27T09:58:45.082Z,9.18
2019-02-27T09:59:40.062Z,9.18
2019-02-27T10:00:39.770Z,9.19
2019-02-27T10:01:39.748Z,9.31
2019-02-27T10:02:39.992Z,9.28
2019-02-27T10:03:39.724Z,9.36
2019-02-27T10:04:39.721Z,9.34
2019-02-27T10:05:40.860Z,9.50
2019-02-27T10:06:40.450Z,9.48
2019-02-27T10:07:39.700Z,9.50
2019-02-27T10:08:39.684Z,9.55
2019-02-27T10:09:40.417Z,9.58
2019-02-27T10:10:39.696Z,9.66
2019-02-27T10:11:39.666Z,9.72
2019-02-27T10:12:39.656Z,9.72
2019-02-27T10:13:39.683Z,9.77
2019-02-27T10:14:39.722Z,9.80
2019-02-27T10:15:39.643Z,9.84
2019-02-27T10:16:39.622Z,9.89
2019-02-27T10:17:41.027Z,9.87
2019-02-27T10:18:39.694Z,9.80
2019-02-27T10:19:40.146Z,9.94
2019-02-27T10:20:39.591Z,10.01
2019-02-27T10:21:41.270Z,9.92
2019-02-27T10:22:39.584Z,10.04
2019-02-27T10:23:39.581Z,10.07
2019-02-27T10:24:39.580Z,10.09
2019-02-27T10:25:43.198Z,10.23
2019-02-27T10:26:39.559Z,10.28
2019-02-27T10:27:39.538Z,10.26
2019-02-27T10:28:39.851Z,10.33
2019-02-27T10:29:39.564Z,10.37
2019-02-27T10:30:39.849Z,10.48
2019-02-27T10:31:39.562Z,10.54
2019-02-27T10:32:39.506Z,10.59
2019-02-27T10:33:39.668Z,10.57
2019-02-27T10:34:39.503Z,10.63
2019-02-27T10:35:39.491Z,10.64
2019-02-27T10:36:39.476Z,10.63
2019-02-27T10:37:39.544Z,10.74
2019-02-27T10:38:40.374Z,10.68
2019-02-27T10:39:39.470Z,10.71
2019-02-27T10:40:39.466Z,10.63
2019-02-27T10:41:39.455Z,10.71
2019-02-27T10:42:39.443Z,10.72
2019-02-27T10:43:39.429Z,10.84
2019-02-27T10:44:39.435Z,10.84
2019-02-27T10:45:39.547Z,10.86
2019-02-27T10:46:39.407Z,10.86
2019-02-27T10:47:39.909Z,10.97
2019-02-27T10:48:40.114Z,11.00
2019-02-27T10:49:39.399Z,11.08
2019-02-27T10:50:39.378Z,11.07
2019-02-27T10:51:41.556Z,11.12
2019-02-27T10:52:39.364Z,11.15
2019-02-27T10:53:39.363Z,11.12
2019-02-27T10:54:39.912Z,11.23
2019-02-27T10:55:39.344Z,11.17
2019-02-27T10:56:39.341Z,11.12
2019-02-27T10:57:39.393Z,11.23
2019-02-27T10:58:39.421Z,11.17
2019-02-27T10:59:39.317Z,11.25
2019-02-27T11:00:39.325Z,11.22
2019-02-27T11:01:39.307Z,11.30
2019-02-27T11:02:39.332Z,11.44
2019-02-27T11:03:39.303Z,11.44
2019-02-27T11:04:39.634Z,11.47
2019-02-27T11:05:39.279Z,11.51
2019-02-27T11:06:39.322Z,11.59
2019-02-27T11:07:39.270Z,11.68
2019-02-27T11:08:39.299Z,11.81
2019-02-27T11:09:41.215Z,11.86
2019-02-27T11:10:39.256Z,11.88
2019-02-27T11:11:39.417Z,11.80
2019-02-27T11:12:39.241Z,11.91
2019-02-27T11:13:39.230Z,11.81
2019-02-27T11:14:39.224Z,11.87
2019-02-27T11:15:41.430Z,11.91
2019-02-27T11:16:39.213Z,11.95
2019-02-27T11:17:39.206Z,12.06
2019-02-27T11:18:39.200Z,12.15
2019-02-27T11:19:39.239Z,12.18
2019-02-27T11:20:39.296Z,12.22
2019-02-27T11:21:39.412Z,12.24
2019-02-27T11:22:40.217Z,12.25
2019-02-27T11:23:41.150Z,12.31
2019-02-27T11:24:39.162Z,12.39
2019-02-27T11:25:39.255Z,12.39
2019-02-27T11:26:39.156Z,12.42
2019-02-27T11:27:39.726Z,12.47
2019-02-27T11:28:39.283Z,12.50
2019-02-27T11:29:40.250Z,12.47
2019-02-27T11:30:39.132Z,12.49
2019-02-27T11:31:39.291Z,12.49
2019-02-27T11:32:39.126Z,12.47
2019-02-27T11:33:39.117Z,12.54
2019-02-27T11:34:39.125Z,12.61
2019-02-27T11:35:39.104Z,12.58
2019-02-27T11:36:39.657Z,12.58
2019-02-27T11:37:39.115Z,12.70
2019-02-27T11:38:39.093Z,12.78
2019-02-27T11:39:39.077Z,12.85
2019-02-27T11:40:41.805Z,12.85
2019-02-27T11:41:39.069Z,12.83
2019-02-27T11:42:39.063Z,12.93
2019-02-27T11:43:40.808Z,12.97
2019-02-27T11:44:39.124Z,13.00
2019-02-27T11:45:39.046Z,13.09
2019-02-27T11:46:39.050Z,13.13
2019-02-27T11:47:39.041Z,13.15
2019-02-27T11:48:39.030Z,13.05
2019-02-27T11:49:39.368Z,13.08
2019-02-27T11:50:39.019Z,13.18
2019-02-27T11:51:39.032Z,13.18
2019-02-27T11:52:46.239Z,13.23
2019-02-27T11:53:39.017Z,13.31
2019-02-27T11:54:42.892Z,13.42
2019-02-27T11:55:38.999Z,13.39
2019-02-27T11:56:38.988Z,13.39
2019-02-27T11:57:38.988Z,13.50
2019-02-27T11:58:39.159Z,13.56
2019-02-27T11:59:38.976Z,13.54
2019-02-27T12:00:38.968Z,13.68
2019-02-27T12:01:39.000Z,13.65
2019-02-27T12:02:38.965Z,13.83
2019-02-27T12:03:38.961Z,13.85
2019-02-27T12:04:39.177Z,13.89
2019-02-27T12:05:38.946Z,13.96
2019-02-27T12:06:41.368Z,13.99
2019-02-27T12:07:38.938Z,14.05
2019-02-27T12:08:38.932Z,14.11
2019-02-27T12:09:38.931Z,14.20
2019-02-27T12:10:38.932Z,14.32
2019-02-27T12:11:38.921Z,14.30
2019-02-27T12:12:38.914Z,14.37
2019-02-27T12:13:38.919Z,14.40
2019-02-27T12:14:38.944Z,14.37
2019-02-27T12:15:43.303Z,14.48
2019-02-27T12:16:38.897Z,14.55
2019-02-27T12:17:38.906Z,14.58
2019-02-27T12:18:38.887Z,14.58
2019-02-27T12:19:42.506Z,14.47
2019-02-27T12:20:38.877Z,14.54
2019-02-27T12:21:38.882Z,14.62
2019-02-27T12:22:38.871Z,14.69
2019-02-27T12:23:41.242Z,14.62
2019-02-27T12:24:38.862Z,14.65
2019-02-27T12:25:38.857Z,14.63
2019-02-27T12:26:38.997Z,14.73
2019-02-27T12:27:49.294Z,14.77
2019-02-27T12:28:38.849Z,14.81
2019-02-27T12:29:38.842Z,14.86
2019-02-27T12:30:38.842Z,14.96
2019-02-27T12:31:38.835Z,14.97
2019-02-27T12:32:38.828Z,15.03
2019-02-27T12:33:38.826Z,15.04
2019-02-27T12:34:38.821Z,15.15
2019-02-27T12:35:38.939Z,15.15
2019-02-27T12:36:38.814Z,15.18
2019-02-27T12:37:38.811Z,15.21
2019-02-27T12:38:39.346Z,15.17
2019-02-27T12:39:38.801Z,15.28
2019-02-27T12:40:38.968Z,15.28
2019-02-27T12:41:38.803Z,15.19
2019-02-27T12:42:42.542Z,15.31
2019-02-27T12:43:38.786Z,15.25
2019-02-27T12:44:38.788Z,15.27
2019-02-27T12:45:38.787Z,15.24
2019-02-27T12:46:38.780Z,15.24
2019-02-27T12:47:40.646Z,15.24
2019-02-27T12:48:38.775Z,15.33
2019-02-27T12:49:38.766Z,15.27
2019-02-27T12:50:38.762Z,15.21
2019-02-27T12:51:39.068Z,15.35
2019-02-27T12:52:38.756Z,15.33
2019-02-27T12:53:38.760Z,15.29
2019-02-27T12:54:38.755Z,15.40
2019-02-27T12:55:38.941Z,15.43
2019-02-27T12:56:41.545Z,15.54
2019-02-27T12:57:38.739Z,15.49
2019-02-27T12:58:38.792Z,15.54
2019-02-27T12:59:38.731Z,15.57
2019-02-27T13:00:39.993Z,15.57
2019-02-27T13:01:38.731Z,15.58
2019-02-27T13:02:38.720Z,15.65
2019-02-27T13:03:42.222Z,15.61
2019-02-27T13:04:38.716Z,15.62
2019-02-27T13:05:38.719Z,15.82
2019-02-27T13:06:38.709Z,15.73
2019-02-27T13:07:38.703Z,15.77
2019-02-27T13:08:38.701Z,15.80
2019-02-27T13:09:38.715Z,15.70
2019-02-27T13:10:38.753Z,15.77
2019-02-27T13:11:39.063Z,15.80
2019-02-27T13:12:38.738Z,15.83